createdAt,value
2019-02-05T00:01:07.055Z,74.00
2019-02-05T00:03:39.470Z,74.19
2019-02-05T00:06:15.600Z,74.42
2019-02-05T00:08:46.094Z,74.23
2019-02-05T00:11:16.711Z,74.18
2019-02-05T00:13:47.259Z,74.17
2019-02-05T00:16:17.610Z,74.30
2019-02-05T00:18:48.400Z,74.36
2019-02-05T00:21:20.537Z,74.38
2019-02-05T00:23:51.110Z,74.26
2019-02-05T00:26:21.856Z,74.06
2019-02-05T00:29:01.570Z,74.05
2019-02-05T00:31:32.239Z,74.17
2019-02-05T00:34:04.488Z,73.85
2019-02-05T00:36:35.121Z,74.34
2019-02-05T00:39:07.737Z,74.27
2019-02-05T00:41:38.427Z,74.37
2019-02-05T00:44:09.018Z,74.21
2019-02-05T00:46:42.571Z,74.31
2019-02-05T00:49:13.217Z,74.31
2019-02-05T00:51:43.821Z,74.28
2019-02-05T00:54:15.999Z,74.62
2019-02-05T00:56:46.652Z,74.72
2019-02-05T00:59:18.156Z,74.79
2019-02-05T01:01:48.815Z,74.59
2019-02-05T01:04:19.113Z,74.55
2019-02-05T01:06:49.759Z,74.42
2019-02-05T01:09:20.406Z,74.08
2019-02-05T01:11:51.342Z,73.95
2019-02-05T01:14:21.603Z,74.22
2019-02-05T01:16:52.210Z,74.04
2019-02-05T01:19:22.727Z,73.36
2019-02-05T01:21:54.428Z,73.77
2019-02-05T01:24:25.349Z,73.12
2019-02-05T01:26:56.055Z,73.62
2019-02-05T01:29:26.668Z,73.08
2019-02-05T01:31:57.209Z,72.51
2019-02-05T01:34:27.885Z,72.89
2019-02-05T01:36:59.062Z,72.49
2019-02-05T01:39:29.619Z,72.50
2019-02-05T01:41:59.845Z,72.19
2019-02-05T01:44:30.477Z,72.21
2019-02-05T01:47:01.096Z,71.75
2019-02-05T01:49:34.686Z,72.11
2019-02-05T01:52:05.345Z,71.60
2019-02-05T01:54:37.644Z,71.33
2019-02-05T01:57:07.995Z,71.31
2019-02-05T01:59:38.567Z,71.12
2019-02-05T02:02:09.227Z,71.60
2019-02-05T02:04:39.828Z,70.82
2019-02-05T02:07:10.567Z,70.66
2019-02-05T02:09:41.188Z,71.09
2019-02-05T02:12:11.557Z,70.41
2019-02-05T02:14:42.137Z,70.44
2019-02-05T02:17:17.776Z,70.51
2019-02-05T02:19:48.101Z,70.54
2019-02-05T02:22:18.427Z,69.25
2019-02-05T02:24:48.976Z,70.53
2019-02-05T02:27:19.627Z,69.36
2019-02-05T02:29:50.867Z,69.92
2019-02-05T02:32:21.386Z,69.30
2019-02-05T02:34:52.019Z,69.26
2019-02-05T02:37:22.650Z,70.27
2019-02-05T02:39:53.188Z,69.89
2019-02-05T02:42:23.817Z,69.31
2019-02-05T02:44:54.436Z,69.33
2019-02-05T02:47:27.751Z,69.63
2019-02-05T02:50:00.233Z,69.53
2019-02-05T02:52:30.920Z,70.03
2019-02-05T02:55:04.348Z,70.34
2019-02-05T02:57:36.626Z,69.02
2019-02-05T03:00:10.527Z,68.75
2019-02-05T03:02:41.558Z,69.68
2019-02-05T03:05:14.044Z,69.74
2019-02-05T03:07:44.691Z,69.16
2019-02-05T03:10:27.065Z,69.75
2019-02-05T03:12:59.451Z,70.01
2019-02-05T03:15:30.069Z,70.09
2019-02-05T03:18:02.251Z,69.28
2019-02-05T03:20:33.083Z,69.17
2019-02-05T03:23:03.710Z,69.61
2019-02-05T03:25:34.239Z,70.14
2019-02-05T03:28:04.764Z,69.00
2019-02-05T03:30:35.305Z,69.89
2019-02-05T03:33:05.953Z,68.96
2019-02-05T03:35:36.572Z,69.58
2019-02-05T03:38:07.175Z,69.73
2019-02-05T03:40:59.560Z,68.55
2019-02-05T03:43:30.170Z,69.16
2019-02-05T03:46:00.715Z,69.79
2019-02-05T03:48:31.324Z,68.59
2019-02-05T03:51:08.212Z,69.64
2019-02-05T03:53:45.265Z,68.09
2019-02-05T03:56:31.102Z,68.98
2019-02-05T03:59:21.673Z,68.15
2019-02-05T04:02:16.894Z,68.06
2019-02-05T04:05:02.907Z,68.08
2019-02-05T04:07:42.599Z,68.44
2019-02-05T04:10:34.417Z,69.07
2019-02-05T04:13:23.314Z,68.73
2019-02-05T04:16:18.007Z,68.72
2019-02-05T04:19:09.749Z,68.93
2019-02-05T04:21:49.601Z,69.92
2019-02-05T04:24:30.404Z,69.49
2019-02-05T04:27:07.119Z,69.42
2019-02-05T04:29:49.731Z,69.20
2019-02-05T04:32:35.624Z,69.40
2019-02-05T04:35:41.171Z,69.78
2019-02-05T04:38:38.840Z,71.15
2019-02-05T04:41:33.193Z,73.06
2019-02-05T04:44:15.858Z,75.57
2019-02-05T04:47:09.338Z,76.83
2019-02-05T04:50:10.268Z,77.38
2019-02-05T04:53:01.980Z,78.22
2019-02-05T04:55:50.649Z,78.36
2019-02-05T04:58:33.264Z,77.73
2019-02-05T05:01:13.294Z,77.67
2019-02-05T05:03:52.838Z,77.75
2019-02-05T05:06:38.750Z,77.04
2019-02-05T05:09:24.618Z,77.05
2019-02-05T05:11:55.271Z,76.98
2019-02-05T05:14:25.591Z,76.62
2019-02-05T05:16:57.486Z,76.92
2019-02-05T05:19:28.058Z,76.92
2019-02-05T05:21:58.803Z,76.41
2019-02-05T05:24:29.445Z,76.47
2019-02-05T05:27:00.074Z,76.25
2019-02-05T05:29:33.109Z,75.84
2019-02-05T05:32:02.974Z,76.03
2019-02-05T05:34:33.615Z,76.13
2019-02-05T05:37:03.335Z,75.78
2019-02-05T05:39:33.953Z,75.95
2019-02-05T05:42:04.311Z,75.73
2019-02-05T05:44:36.258Z,74.15
2019-02-05T05:47:07.386Z,74.51
2019-02-05T05:49:38.010Z,73.94
2019-02-05T05:52:08.629Z,74.86
2019-02-05T05:54:41.947Z,74.39
2019-02-05T05:57:12.631Z,73.53
2019-02-05T05:59:42.897Z,73.70
2019-02-05T06:02:13.190Z,73.38
2019-02-05T06:04:43.745Z,74.06
2019-02-05T06:07:14.520Z,74.05
2019-02-05T06:09:45.097Z,73.36
2019-02-05T06:12:15.387Z,73.29
2019-02-05T06:14:45.972Z,72.76
2019-02-05T06:17:16.696Z,73.33
2019-02-05T06:19:47.395Z,73.17
2019-02-05T06:22:19.728Z,72.51
2019-02-05T06:24:50.505Z,72.57
2019-02-05T06:27:21.081Z,71.86
2019-02-05T06:29:52.112Z,72.39
2019-02-05T06:32:22.408Z,71.45
2019-02-05T06:34:54.582Z,71.89
2019-02-05T06:37:28.416Z,72.13
2019-02-05T06:39:58.711Z,72.40
2019-02-05T06:42:29.691Z,71.17
2019-02-05T06:45:00.336Z,71.83
2019-02-05T06:47:30.943Z,71.92
2019-02-05T06:50:01.566Z,71.77
2019-02-05T06:52:32.237Z,72.39
2019-02-05T06:55:02.826Z,72.03
2019-02-05T06:57:34.694Z,71.16
2019-02-05T07:00:09.908Z,71.42
2019-02-05T07:02:40.566Z,71.47
2019-02-05T07:05:12.031Z,71.42
2019-02-05T07:07:42.752Z,71.48
2019-02-05T07:10:24.710Z,72.38
2019-02-05T07:12:55.379Z,72.90
2019-02-05T07:15:26.096Z,72.21
2019-02-05T07:17:56.747Z,72.31
2019-02-05T07:20:27.370Z,72.46
2019-02-05T07:22:58.538Z,72.82
2019-02-05T07:25:29.150Z,72.98
2019-02-05T07:27:59.678Z,72.17
2019-02-05T07:30:29.999Z,72.73
2019-02-05T07:33:02.016Z,71.52
2019-02-05T07:35:32.832Z,72.13
2019-02-05T07:38:03.549Z,71.61
2019-02-05T07:40:34.307Z,71.15
2019-02-05T07:43:05.034Z,71.43
2019-02-05T07:45:35.644Z,71.59
2019-02-05T07:48:06.285Z,71.94
2019-02-05T07:50:38.341Z,71.18
2019-02-05T07:53:09.394Z,71.77
2019-02-05T07:55:40.015Z,71.43
2019-02-05T07:58:10.645Z,71.27
2019-02-05T08:00:41.392Z,72.13
2019-02-05T08:03:12.121Z,71.98
2019-02-05T08:05:42.746Z,71.75
2019-02-05T08:08:13.781Z,71.64
2019-02-05T08:10:44.428Z,71.81
2019-02-05T08:13:14.975Z,71.59
2019-02-05T08:15:45.410Z,71.99
2019-02-05T08:18:18.675Z,71.49
2019-02-05T08:20:49.471Z,71.55
2019-02-05T08:23:19.860Z,72.33
2019-02-05T08:25:52.002Z,71.70
2019-02-05T08:28:22.325Z,70.99
2019-02-05T08:30:52.987Z,71.15
2019-02-05T08:33:23.586Z,71.39
2019-02-05T08:35:54.257Z,71.39
2019-02-05T08:38:25.372Z,71.08
2019-02-05T08:40:56.307Z,70.61
2019-02-05T08:43:28.604Z,71.14
2019-02-05T08:45:59.221Z,71.28
2019-02-05T08:48:29.840Z,70.32
2019-02-05T08:51:00.571Z,70.33
2019-02-05T08:53:31.646Z,70.36
2019-02-05T08:56:02.333Z,70.28
2019-02-05T08:58:32.881Z,71.37
2019-02-05T09:01:03.740Z,70.86
2019-02-05T09:03:36.611Z,70.19
2019-02-05T09:06:06.992Z,70.09
2019-02-05T09:08:39.728Z,70.49
2019-02-05T09:11:10.451Z,69.85
2019-02-05T09:13:41.166Z,70.23
2019-02-05T09:16:11.947Z,69.96
2019-02-05T09:18:42.561Z,69.74
2019-02-05T09:21:13.199Z,69.81
2019-02-05T09:23:43.720Z,69.43
2019-02-05T09:26:14.343Z,69.63
2019-02-05T09:28:44.987Z,69.60
2019-02-05T09:31:18.370Z,69.75
2019-02-05T09:33:48.690Z,69.72
2019-02-05T09:36:19.841Z,69.67
2019-02-05T09:38:50.567Z,69.78
2019-02-05T09:41:21.202Z,69.76
2019-02-05T09:43:51.835Z,69.46
2019-02-05T09:46:24.102Z,69.25
2019-02-05T09:48:54.762Z,69.54
2019-02-05T09:51:25.880Z,69.77
2019-02-05T09:53:56.516Z,69.80
2019-02-05T09:56:30.937Z,69.97
2019-02-05T09:59:01.555Z,70.22
2019-02-05T10:01:32.280Z,70.37
2019-02-05T10:04:03.028Z,69.80
2019-02-05T10:06:33.841Z,69.53
2019-02-05T10:09:07.469Z,69.49
2019-02-05T10:11:38.208Z,70.09
2019-02-05T10:14:08.838Z,69.95
2019-02-05T10:16:39.473Z,69.70
2019-02-05T10:19:10.540Z,70.07
2019-02-05T10:21:41.251Z,70.02
2019-02-05T10:24:11.978Z,70.12
2019-02-05T10:26:42.601Z,70.68
2019-02-05T10:29:12.972Z,70.79
2019-02-05T10:31:46.103Z,70.89
2019-02-05T10:34:16.380Z,70.94
2019-02-05T10:36:47.153Z,71.15
2019-02-05T10:39:19.476Z,70.68
2019-02-05T10:41:50.181Z,71.10
2019-02-05T10:44:20.829Z,70.98
2019-02-05T10:46:51.240Z,70.86
2019-02-05T10:49:22.004Z,71.10
2019-02-05T10:51:52.447Z,71.06
2019-02-05T10:54:23.082Z,70.54
2019-02-05T10:56:53.777Z,70.76
2019-02-05T10:59:24.497Z,70.77
2019-02-05T11:01:55.467Z,71.02
2019-02-05T11:04:26.001Z,71.28
2019-02-05T11:06:56.734Z,71.09
2019-02-05T11:09:27.408Z,71.34
2019-02-05T11:11:58.104Z,71.35
2019-02-05T11:14:28.937Z,71.28
2019-02-05T11:17:00.135Z,71.26
2019-02-05T11:19:30.950Z,71.47
2019-02-05T11:22:02.201Z,71.48
2019-02-05T11:24:32.792Z,71.55
2019-02-05T11:27:03.413Z,71.44
2019-02-05T11:29:34.122Z,71.57
2019-02-05T11:32:05.279Z,71.30
2019-02-05T11:34:36.097Z,71.53
2019-02-05T11:37:06.740Z,71.53
2019-02-05T11:39:39.097Z,71.39
2019-02-05T11:42:09.752Z,71.65
2019-02-05T11:44:46.956Z,71.73
2019-02-05T11:47:18.710Z,71.64
2019-02-05T11:49:49.431Z,71.63
2019-02-05T11:52:20.058Z,71.88
2019-02-05T11:54:50.689Z,71.95
2019-02-05T11:57:21.326Z,72.15
2019-02-05T11:59:52.471Z,72.34
2019-02-05T12:02:23.199Z,72.32
2019-02-05T12:04:53.950Z,72.36
2019-02-05T12:07:24.238Z,72.35
2019-02-05T12:09:54.907Z,72.18
2019-02-05T12:12:25.626Z,72.36
2019-02-05T12:14:56.772Z,72.44
2019-02-05T12:17:27.462Z,72.19
2019-02-05T12:19:58.140Z,72.47
2019-02-05T12:22:28.875Z,71.92
2019-02-05T12:24:59.611Z,71.83
2019-02-05T12:27:30.062Z,71.83
2019-02-05T12:30:01.073Z,71.82
2019-02-05T12:32:31.704Z,71.78
2019-02-05T12:35:02.434Z,71.77
2019-02-05T12:37:33.207Z,71.72
2019-02-05T12:40:04.927Z,71.74
2019-02-05T12:42:37.213Z,71.84
2019-02-05T12:45:11.325Z,71.70
2019-02-05T12:47:41.941Z,72.01
2019-02-05T12:50:16.276Z,72.09
2019-02-05T12:52:47.061Z,72.09
2019-02-05T12:55:17.979Z,72.06
2019-02-05T12:57:48.284Z,72.14
2019-02-05T13:00:22.296Z,72.36
2019-02-05T13:02:55.306Z,72.56
2019-02-05T13:05:25.891Z,73.04
2019-02-05T13:07:56.194Z,72.92
2019-02-05T13:10:35.648Z,72.25
2019-02-05T13:13:10.893Z,72.36
2019-02-05T13:15:41.537Z,72.10
2019-02-05T13:18:12.266Z,72.12
2019-02-05T13:20:43.330Z,72.43
2019-02-05T13:23:13.942Z,72.50
2019-02-05T13:25:45.710Z,72.65
2019-02-05T13:28:16.428Z,72.95
2019-02-05T13:30:46.622Z,73.23
2019-02-05T13:33:17.884Z,72.99
2019-02-05T13:35:48.529Z,73.20
2019-02-05T13:38:19.099Z,73.20
2019-02-05T13:40:49.702Z,73.42
2019-02-05T13:43:20.412Z,73.35
2019-02-05T13:45:52.574Z,73.09
2019-02-05T13:48:23.109Z,72.69
2019-02-05T13:50:53.715Z,73.21
2019-02-05T13:53:24.287Z,73.35
2019-02-05T13:55:54.953Z,72.74
2019-02-05T13:58:26.761Z,72.89
2019-02-05T14:00:57.404Z,73.34
2019-02-05T14:03:27.965Z,73.30
2019-02-05T14:05:58.572Z,73.24
2019-02-05T14:08:29.522Z,73.37
2019-02-05T14:11:00.130Z,73.38
2019-02-05T14:13:30.914Z,73.25
2019-02-05T14:16:01.611Z,73.26
2019-02-05T14:18:32.822Z,73.38
2019-02-05T14:21:03.776Z,73.82
2019-02-05T14:23:34.428Z,73.78
2019-02-05T14:26:06.367Z,73.55
2019-02-05T14:28:37.135Z,73.87
2019-02-05T14:31:10.792Z,73.43
2019-02-05T14:33:40.748Z,73.63
2019-02-05T14:36:11.373Z,73.55
2019-02-05T14:38:42.723Z,73.79
2019-02-05T14:41:13.363Z,73.52
2019-02-05T14:43:43.983Z,73.65
2019-02-05T14:46:14.638Z,73.79
2019-02-05T14:48:45.351Z,73.77
2019-02-05T14:51:15.977Z,73.80
2019-02-05T14:53:46.918Z,73.43
2019-02-05T14:56:17.442Z,74.01
2019-02-05T14:58:48.077Z,73.79
2019-02-05T15:01:18.611Z,74.02
2019-02-05T15:03:49.256Z,74.28
2019-02-05T15:06:19.883Z,74.01
2019-02-05T15:08:50.527Z,74.57
2019-02-05T15:11:21.170Z,74.51
2019-02-05T15:13:52.967Z,74.49
2019-02-05T15:16:23.639Z,74.40
2019-02-05T15:18:54.259Z,74.36
2019-02-05T15:21:25.006Z,74.26
2019-02-05T15:23:55.724Z,74.68
2019-02-05T15:26:26.367Z,74.41
2019-02-05T15:28:57.103Z,74.31
2019-02-05T15:31:27.729Z,74.18
2019-02-05T15:34:00.301Z,73.97
2019-02-05T15:36:31.704Z,74.06
2019-02-05T15:39:02.604Z,74.54
2019-02-05T15:41:32.957Z,74.44
2019-02-05T15:44:03.699Z,74.10
2019-02-05T15:46:35.046Z,74.35
2019-02-05T15:49:05.765Z,74.57
2019-02-05T15:51:36.384Z,74.12
2019-02-05T15:54:07.103Z,74.50
2019-02-05T15:56:38.840Z,74.74
2019-02-05T15:59:09.818Z,74.54
2019-02-05T16:01:40.673Z,74.43
2019-02-05T16:04:11.371Z,74.68
2019-02-05T16:06:44.263Z,74.67
2019-02-05T16:09:15.006Z,74.65
2019-02-05T16:11:45.738Z,74.66
2019-02-05T16:14:16.456Z,74.79
2019-02-05T16:16:47.094Z,74.85
2019-02-05T16:19:17.419Z,74.70
2019-02-05T16:21:51.115Z,74.57
2019-02-05T16:24:23.055Z,75.14
2019-02-05T16:26:53.637Z,74.98
2019-02-05T16:29:24.344Z,74.66
2019-02-05T16:31:54.694Z,75.13
2019-02-05T16:34:25.594Z,75.27
2019-02-05T16:36:56.260Z,74.82
2019-02-05T16:39:27.280Z,74.97
2019-02-05T16:41:58.019Z,74.88
2019-02-05T16:44:28.340Z,74.98
2019-02-05T16:46:58.965Z,74.74
2019-02-05T16:49:29.610Z,74.89
2019-02-05T16:52:00.371Z,74.64
2019-02-05T16:54:31.072Z,74.81
2019-02-05T16:57:01.709Z,74.39
2019-02-05T16:59:32.463Z,74.87
2019-02-05T17:02:03.089Z,75.01
2019-02-05T17:04:33.946Z,74.61
2019-02-05T17:07:04.869Z,74.95
2019-02-05T17:09:35.507Z,74.93
2019-02-05T17:12:06.101Z,75.24
2019-02-05T17:14:36.637Z,75.54
2019-02-05T17:17:07.365Z,75.29
2019-02-05T17:19:38.122Z,75.54
2019-02-05T17:22:08.393Z,75.26
2019-02-05T17:24:39.046Z,74.97
2019-02-05T17:27:09.708Z,74.98
2019-02-05T17:29:40.341Z,74.23
2019-02-05T17:32:11.066Z,75.15
2019-02-05T17:34:41.908Z,74.91
2019-02-05T17:37:12.528Z,74.14
2019-02-05T17:39:42.917Z,73.97
2019-02-05T17:42:13.636Z,73.90
2019-02-05T17:44:45.931Z,74.37
2019-02-05T17:47:16.639Z,74.69
2019-02-05T17:49:47.213Z,74.32
2019-02-05T17:52:17.458Z,74.18
2019-02-05T17:54:48.163Z,73.71
2019-02-05T17:57:18.950Z,73.85
2019-02-05T17:59:49.767Z,74.13
2019-02-05T18:02:20.480Z,73.92
2019-02-05T18:04:51.556Z,74.01
2019-02-05T18:07:22.215Z,74.50
2019-02-05T18:09:54.443Z,73.95
2019-02-05T18:12:24.803Z,74.16
2019-02-05T18:14:57.808Z,73.86
2019-02-05T18:17:28.467Z,74.23
2019-02-05T18:19:59.071Z,74.29
2019-02-05T18:22:29.645Z,74.59
2019-02-05T18:25:00.474Z,74.48
2019-02-05T18:27:31.545Z,74.90
2019-02-05T18:30:02.350Z,74.74
2019-02-05T18:32:33.013Z,74.76
2019-02-05T18:35:03.493Z,74.96
2019-02-05T18:37:34.156Z,74.77
2019-02-05T18:40:08.679Z,75.21
2019-02-05T18:42:39.488Z,74.95
2019-02-05T18:45:13.244Z,75.10
2019-02-05T18:47:43.954Z,74.89
2019-02-05T18:50:24.024Z,74.64
2019-02-05T18:52:55.135Z,75.31
2019-02-05T18:55:28.670Z,74.47
2019-02-05T18:58:08.920Z,74.31
2019-02-05T19:00:33.805Z,74.53
2019-02-05T19:03:14.844Z,74.35
2019-02-05T19:05:38.786Z,74.30
2019-02-05T19:08:09.899Z,74.49
2019-02-05T19:10:40.803Z,74.42
2019-02-05T19:13:11.917Z,74.37
2019-02-05T19:15:42.218Z,74.54
2019-02-05T19:18:12.964Z,74.25
2019-02-05T19:20:43.813Z,74.48
2019-02-05T19:23:14.135Z,74.30
2019-02-05T19:25:49.641Z,74.15
2019-02-05T19:28:21.946Z,73.94
2019-02-05T19:30:54.468Z,73.95
2019-02-05T19:33:27.357Z,74.00
2019-02-05T19:35:57.388Z,74.26
2019-02-05T19:38:28.140Z,73.80
2019-02-05T19:40:58.637Z,74.03
2019-02-05T19:43:30.989Z,74.06
2019-02-05T19:46:21.662Z,73.70
2019-02-05T19:48:54.127Z,73.75
2019-02-05T19:51:24.832Z,73.81
2019-02-05T19:53:57.507Z,73.79
2019-02-05T19:56:37.858Z,73.72
2019-02-05T19:59:00.750Z,73.64
2019-02-05T20:01:31.471Z,73.52
2019-02-05T20:04:02.212Z,73.29
2019-02-05T20:06:32.932Z,73.54
2019-02-05T20:09:05.516Z,73.74
2019-02-05T20:11:37.907Z,73.17
2019-02-05T20:14:08.568Z,73.03
2019-02-05T20:16:39.235Z,73.24
2019-02-05T20:19:10.176Z,72.99
2019-02-05T20:21:41.457Z,72.98
2019-02-05T20:24:11.852Z,73.09
2019-02-05T20:26:42.519Z,73.35
2019-02-05T20:29:12.927Z,73.07
2019-02-05T20:31:43.716Z,72.89
2019-02-05T20:34:14.555Z,72.82
2019-02-05T20:36:45.741Z,73.05
2019-02-05T20:39:16.515Z,72.67
2019-02-05T20:41:47.205Z,72.63
2019-02-05T20:44:17.970Z,72.65
2019-02-05T20:46:49.296Z,72.81
2019-02-05T20:49:20.059Z,72.77
2019-02-05T20:51:50.760Z,72.91
2019-02-05T20:54:21.537Z,72.84
2019-02-05T20:56:52.244Z,72.85
2019-02-05T20:59:22.962Z,72.65
2019-02-05T21:01:56.098Z,72.78
2019-02-05T21:04:26.086Z,72.38
2019-02-05T21:06:59.611Z,72.66
2019-02-05T21:09:29.104Z,72.75
2019-02-05T21:11:59.532Z,73.12
2019-02-05T21:14:30.658Z,72.91
2019-02-05T21:17:01.442Z,73.32
2019-02-05T21:19:32.440Z,72.90
2019-02-05T21:22:03.237Z,72.27
2019-02-05T21:24:35.492Z,73.29
2019-02-05T21:27:06.157Z,73.00
2019-02-05T21:29:36.892Z,72.61
2019-02-05T21:32:07.639Z,72.50
2019-02-05T21:34:38.426Z,73.20
2019-02-05T21:37:09.214Z,73.14
2019-02-05T21:39:39.835Z,72.90
2019-02-05T21:42:10.563Z,73.29
2019-02-05T21:44:41.293Z,72.65
2019-02-05T21:47:12.471Z,72.21
2019-02-05T21:49:43.174Z,72.62
2019-02-05T21:52:13.926Z,72.22
2019-02-05T21:54:44.596Z,72.04
2019-02-05T21:57:15.365Z,71.82
2019-02-05T21:59:46.215Z,72.16
2019-02-05T22:02:16.908Z,72.59
2019-02-05T22:04:47.692Z,72.87
2019-02-05T22:07:18.412Z,72.71
2019-02-05T22:09:49.166Z,73.21
2019-02-05T22:12:19.908Z,73.28
2019-02-05T22:14:50.727Z,73.08
2019-02-05T22:17:21.545Z,72.85
2019-02-05T22:19:52.280Z,73.37
2019-02-05T22:22:23.035Z,73.46
2019-02-05T22:24:53.413Z,73.51
2019-02-05T22:27:24.174Z,73.29
2019-02-05T22:29:54.952Z,73.34
2019-02-05T22:32:26.753Z,73.49
2019-02-05T22:34:57.407Z,73.72
2019-02-05T22:37:28.137Z,73.45
2019-02-05T22:39:58.768Z,73.95
2019-02-05T22:42:29.007Z,73.80
2019-02-05T22:45:00.222Z,73.36
2019-02-05T22:47:30.885Z,73.08
2019-02-05T22:50:01.495Z,73.32
2019-02-05T22:52:32.135Z,73.52
2019-02-05T22:55:03.375Z,73.56
2019-02-05T22:57:34.007Z,73.21
2019-02-05T23:00:08.041Z,73.50
2019-02-05T23:02:39.179Z,73.44
2019-02-05T23:05:15.670Z,73.41
2019-02-05T23:07:46.675Z,73.84
2019-02-05T23:10:20.584Z,73.32
2019-02-05T23:12:51.346Z,73.32
2019-02-05T23:15:22.045Z,73.44
2019-02-05T23:17:52.677Z,73.38
2019-02-05T23:20:23.323Z,73.05
2019-02-05T23:22:56.950Z,73.03
2019-02-05T23:25:26.830Z,73.18
2019-02-05T23:27:57.594Z,73.39
2019-02-05T23:30:28.324Z,73.66
2019-02-05T23:32:59.044Z,73.20
2019-02-05T23:35:32.508Z,73.30
2019-02-05T23:38:01.970Z,73.31
2019-02-05T23:40:32.565Z,72.82
2019-02-05T23:43:03.090Z,72.90
2019-02-05T23:45:33.719Z,73.07
2019-02-05T23:48:04.494Z,72.80
2019-02-05T23:50:35.116Z,73.07
2019-02-05T23:53:05.817Z,73.07
2019-02-05T23:55:36.440Z,72.58
2019-02-05T23:58:06.746Z,72.68
